Flight Track Log - Related Links

Times and Time Zones

All times are in EDT time to prevent confusion due to time zone crossing. See the RPA3152 flight status page for this flight to view local times or setup timezone preferences in your user account.

Time Position Orientation Groundspeed Altitude Reporting Facility
EDT Latitude Longitude Course Direction KTS MPH feet Rate Location/Type
Wed 10:36:51 PM 38.8000 -77.0333 38° Northeast 166 191 2,300  Level Potomac TRACON
Wed 10:37:57 PM 38.7333 -77.0333 180° South 241 277 5,000 1,857 Climbing Potomac TRACON
Wed 10:38:00 PM 39.0438 -76.4905 63° Northeast  Level FlightAware Approximate
Wed 10:38:57 PM 38.7167 -76.9500 104° East 278 320 6,200  Level Potomac TRACON
Wed 10:39:00 PM 39.1167 -76.3106 90° East  Level FlightAware Approximate
Wed 10:39:51 PM 38.7500 -76.8667 63° Northeast 289 333 8,700  Level Potomac TRACON
Wed 10:40:00 PM 39.1592 -76.1245 83° East  Level FlightAware Approximate
Wed 10:40:51 PM 38.8000 -76.8833 345° North 267 307 10,200  Level Potomac TRACON
Wed 10:41:00 PM 39.1805 -75.9226 81° East  Level FlightAware Approximate
Wed 10:41:51 PM 38.9167 -76.8667 North 327 376 13,900  Level Potomac TRACON
Wed 10:42:00 PM 39.2304 -75.8197 38° Northeast  Level FlightAware Approximate
Wed 10:44:08 PM 39.0994 -76.7764 21° North 344 396 19,000  Level Washington Center
Wed 10:45:08 PM 39.1108 -76.6483 83° East 301 346 19,900 1,424 Climbing Washington Center
Wed 10:46:06 PM 39.1244 -76.5228 82° East 314 361 21,800 1,576 Climbing Washington Center
Wed 10:47:06 PM 39.1381 -76.3864 83° East 350 403 23,000 600 Climbing Washington Center
Wed 10:48:06 PM 39.1469 -76.2528 85° East 372 428 23,000 246 Level Washington Center
Wed 10:49:08 PM 39.1664 -76.1164 80° East 377 434 23,500 639 Climbing Washington Center
Wed 10:50:08 PM 39.2253 -75.9989 57° Northeast 377 434 24,300 1,576 Climbing Washington Center
Wed 10:51:06 PM 39.2986 -75.8867 50° Northeast 387 445 26,600 1,916 Climbing Washington Center
Wed 10:52:07 PM 39.3739 -75.7767 48° Northeast 394 453 28,100 1,450 Climbing Washington Center
Wed 10:53:06 PM 39.4489 -75.6642 49° Northeast 406 467 29,500 1,700 Climbing Washington Center
Wed 10:54:07 PM 39.5239 -75.5486 50° Northeast 411 473 31,500 1,587 Climbing Washington Center
Wed 10:55:07 PM 39.5989 -75.4353 49° Northeast 411 473 32,700 539 Climbing Washington Center
Wed 10:56:54 PM 39.7375 -75.2253 49° Northeast 423 487 33,000 107 Climbing New York Center
Wed 10:57:55 PM 39.8175 -75.0925 52° Northeast 423 487 33,000  Level New York Center
Wed 10:58:54 PM 39.8947 -74.9756 49° Northeast 423 487 33,000  Level New York Center
Wed 10:59:54 PM 39.9761 -74.8558 48° Northeast 423 487 33,000  Level New York Center
Wed 11:00:55 PM 40.0467 -74.7406 51° Northeast 418 481 33,000  Level New York Center
Wed 11:01:54 PM 40.1364 -74.6778 28° Northeast 397 457 33,000  Level New York Center
Wed 11:02:54 PM 40.2631 -74.6333 15° North 411 473 33,000  Level New York Center
Wed 11:03:55 PM 40.3747 -74.5958 14° North 416 479 33,000  Level New York Center
Wed 11:04:54 PM 40.4861 -74.5586 14° North 416 479 33,000  Level New York Center
Wed 11:07:11 PM 40.7314 -74.4806 14° North 435 501 33,000  Level Boston Center
Wed 11:08:11 PM 40.8425 -74.4428 14° North 425 489 33,000  Level Boston Center
Wed 11:09:11 PM 40.9558 -74.4025 15° North 420 483 33,000  Level Boston Center
Wed 11:10:12 PM 41.0686 -74.3756 10° North 415 478 33,000  Level Boston Center
Wed 11:11:11 PM 41.1819 -74.3375 14° North 415 478 33,000  Level Boston Center
Wed 11:12:13 PM 41.2867 -74.2964 16° North 404 465 33,000  Level Boston Center
Wed 11:13:11 PM 41.3978 -74.2611 13° North 398 458 33,000  Level Boston Center
Wed 11:14:12 PM 41.5089 -74.2253 14° North 398 458 33,000  Level Boston Center
Wed 11:15:12 PM 41.6219 -74.1869 14° North 403 464 33,000  Level Boston Center
Wed 11:16:12 PM 41.7308 -74.1508 14° North 403 464 33,000  Level Boston Center
Wed 11:17:10 PM 41.8378 -74.1175 13° North 396 456 33,000  Level Boston Center
Wed 11:18:11 PM 41.9489 -74.0814 14° North 396 456 33,000  Level Boston Center
Wed 11:19:11 PM 42.0578 -74.0450 14° North 396 456 33,000  Level Boston Center
Wed 11:20:12 PM 42.1686 -74.0086 14° North 396 456 33,000  Level Boston Center
Wed 11:21:10 PM 42.2797 -73.9694 15° North 396 456 33,000  Level Boston Center
Wed 11:22:10 PM 42.4011 -73.9303 13° North 396 456 33,000  Level Boston Center
Wed 11:23:11 PM 42.5119 -73.8906 15° North 396 456 33,000  Level Boston Center
Wed 11:24:12 PM 42.6083 -73.8533 16° North 396 456 33,000  Level Boston Center
Wed 11:25:13 PM 42.7194 -73.8136 15° North 396 456 33,000 -51 Level Boston Center
Wed 11:26:10 PM 42.8281 -73.7736 15° North 396 456 32,900 -1,179 Descending Boston Center
Wed 11:27:10 PM 42.9411 -73.7333 15° North 402 463 30,700 -2,146 Descending Boston Center
Wed 11:28:13 PM 43.0500 -73.6903 16° North 402 463 28,500 -2,231 Descending Boston Center
Wed 11:29:11 PM 43.1631 -73.6528 14° North 402 463 26,200 -2,218 Descending Boston Center
Wed 11:30:12 PM 43.2697 -73.6119 16° North 402 463 24,100 -1,082 Descending Boston Center
Wed 11:31:13 PM 43.3764 -73.5742 14° North 397 457 24,000 -694 Descending Boston Center
Wed 11:32:13 PM 43.4831 -73.5331 16° North 397 457 22,700 -1,949 Descending Boston Center
Wed 11:33:10 PM 43.5875 -73.4919 16° North 397 457 20,200 -2,513 Descending Boston Center
Wed 11:34:10 PM 43.6900 -73.4536 15° North 392 451 17,800 -2,500 Descending Boston Center
Wed 11:35:10 PM 43.7989 -73.4153 14° North 376 433 15,200 -2,146 Descending Boston Center
Wed 11:36:13 PM 43.8886 -73.3792 16° North 352 405 13,400 -1,721 Descending Boston Center
Wed 11:37:12 PM 43.9744 -73.3458 16° North 323 372 11,700 -1,700 Descending Boston Center
Wed 11:38:13 PM 44.0558 -73.3153 15° North 303 349 10,000 -1,289 Descending Boston Center
Wed 11:39:13 PM 44.1375 -73.2819 16° North 298 343 9,100 -1,300 Descending Boston Center
Wed 11:40:13 PM 44.2167 -73.2539 14° North 298 343 7,400 -1,431 Descending Boston Center
Wed 11:41:23 PM 44.2939 -73.2522 North 292 336 6,000 -1,488 Descending Boston Center
Wed 11:42:22 PM 44.3750 -73.2764 348° North 256 295 4,200 -1,600 Descending Boston Center
Wed 11:43:23 PM 44.4353 -73.3006 344° North 231 266 2,800 -1,041 Descending Boston Center
Wed 11:44:23 PM 44.4853 -73.3014 359° North 200 230 2,100 -555 Descending Boston Center
Wed 11:45:22 PM 44.5231 -73.2553 41° Northeast 179 206 1,700 -500 Descending Boston Center
Wed 11:46:23 PM 44.5047 -73.2086 119° Southeast 123 142 1,100 -639 Descending Boston Center
Wed 11:47:24 PM 44.4819 -73.1703 130° Southeast 124 143 400 -347 Descending Boston Center
Wed 11:48:24 PM 44.4614 -73.1322 127° Southeast 124 143 400  Level Boston Center

Login

Don't have an account? Register now (free) for customized features, flight alerts, and more!